Time;durP1;ratioP1;P1;durP2;ratioP2;P2;SDS_P1;SDS_P2;PMS_P1;PMS_P2;Temp;Humidity;BMP_temperature;BMP_pressure;BME280_temperature;BME280_humidity;BME280_pressure;Samples;Min_cycle;Max_cycle;Signal;HPM_P1;HPM_P2
2023/05/02 00:00:33;;;;;;;30.17;20.98;;;11.80;99.90;;;;;;4945194;28;20050;-81
2023/05/02 00:02:59;;;;;;;30.20;20.73;;;11.70;99.90;;;;;;4960883;28;20053;-81
2023/05/02 00:05:25;;;;;;;31.13;19.85;;;11.70;99.90;;;;;;4977131;28;20541;-82
2023/05/02 00:07:51;;;;;;;29.02;20.05;;;11.70;99.90;;;;;;4976960;28;20054;-81
2023/05/02 00:10:18;;;;;;;27.13;19.48;;;11.70;99.90;;;;;;4976678;28;20113;-82
2023/05/02 00:12:44;;;;;;;29.10;19.45;;;11.70;99.90;;;;;;4960443;28;20097;-83
2023/05/02 00:15:09;;;;;;;24.15;16.27;;;11.70;99.90;;;;;;4976740;28;20077;-82
2023/05/02 00:17:36;;;;;;;20.42;15.05;;;11.70;99.90;;;;;;4944584;28;20470;-82
2023/05/02 00:20:05;;;;;;;22.27;14.98;;;11.60;99.90;;;;;;4976233;28;20051;-84
2023/05/02 00:22:31;;;;;;;21.67;14.93;;;11.50;99.90;;;;;;4976272;28;20090;-83
2023/05/02 00:24:57;;;;;;;23.08;15.45;;;11.50;99.90;;;;;;4944953;28;20445;-83
2023/05/02 00:27:23;;;;;;;21.77;14.77;;;11.50;99.90;;;;;;4960731;28;20038;-81
2023/05/02 00:29:51;;;;;;;24.52;15.40;;;11.50;99.90;;;;;;4976822;28;20368;-82
2023/05/02 00:32:17;;;;;;;23.27;15.27;;;11.40;99.90;;;;;;4976367;28;20061;-82
2023/05/02 00:34:43;;;;;;;21.73;15.82;;;11.40;99.90;;;;;;4960812;28;20390;-82
2023/05/02 00:37:09;;;;;;;25.67;15.32;;;11.30;99.90;;;;;;4976506;28;20042;-81
2023/05/02 00:39:35;;;;;;;24.27;15.65;;;11.20;99.90;;;;;;4976512;28;20050;-82
2023/05/02 00:42:01;;;;;;;24.73;13.68;;;11.20;99.90;;;;;;4976415;28;20145;-83
2023/05/02 00:44:27;;;;;;;24.25;13.07;;;11.10;99.90;;;;;;4944392;28;20390;-82
2023/05/02 00:46:54;;;;;;;20.88;12.07;;;11.10;99.90;;;;;;4976019;28;20038;-84
2023/05/02 00:49:20;;;;;;;20.85;11.93;;;11.00;99.90;;;;;;4976671;28;20039;-84
2023/05/02 00:51:46;;;;;;;19.00;10.50;;;11.00;99.90;;;;;;4960570;28;20042;-84
2023/05/02 00:54:12;;;;;;;16.52;9.75;;;10.90;99.90;;;;;;4976574;28;20390;-82
2023/05/02 00:56:38;;;;;;;15.70;9.13;;;10.90;99.90;;;;;;4959945;28;20122;-83
2023/05/02 00:59:06;;;;;;;15.20;8.65;;;10.90;99.90;;;;;;4959929;28;20043;-83
2023/05/02 01:01:52;;;;;;;13.63;7.68;;;10.80;99.90;;;;;;4960437;28;20388;-82
2023/05/02 01:04:57;;;;;;;12.30;6.72;;;10.80;99.90;;;;;;4960447;28;20057;-81
2023/05/02 01:07:23;;;;;;;9.38;5.28;;;10.70;99.90;;;;;;4976388;28;20050;-81
2023/05/02 01:10:08;;;;;;;8.95;4.68;;;10.70;99.90;;;;;;4976509;28;20137;-81
2023/05/02 01:12:59;;;;;;;9.80;4.80;;;10.70;99.90;;;;;;4975347;28;20053;-81
2023/05/02 01:15:25;;;;;;;9.63;4.20;;;10.60;99.90;;;;;;4976453;28;20050;-83
2023/05/02 01:17:53;;;;;;;9.48;4.40;;;10.50;99.90;;;;;;4959833;28;20130;-82
2023/05/02 01:20:22;;;;;;;7.15;3.60;;;10.50;99.90;;;;;;4976053;28;20052;-81
2023/05/02 01:22:49;;;;;;;7.25;3.65;;;10.50;99.90;;;;;;4976386;28;20058;-84
2023/05/02 01:25:35;;;;;;;9.05;3.70;;;10.50;99.90;;;;;;4975852;28;20054;-82
2023/05/02 01:28:41;;;;;;;6.90;3.63;;;10.40;99.90;;;;;;4975994;28;20050;-81
2023/05/02 01:31:08;;;;;;;8.55;4.25;;;10.40;99.90;;;;;;4976304;28;20058;-81
2023/05/02 01:33:35;;;;;;;8.52;3.92;;;10.30;99.90;;;;;;4962683;28;20549;-81
2023/05/02 01:36:02;;;;;;;10.02;4.30;;;10.30;99.90;;;;;;4963614;28;20113;-82
2023/05/02 01:38:29;;;;;;;9.27;4.30;;;10.30;99.90;;;;;;4963279;28;20046;-81
2023/05/02 01:41:02;;;;;;;7.50;3.88;;;10.30;99.90;;;;;;4963515;28;20050;-81
2023/05/02 01:43:30;;;;;;;8.80;3.97;;;10.20;99.90;;;;;;4979216;28;20054;-82
2023/05/02 01:45:57;;;;;;;9.75;4.32;;;10.20;99.90;;;;;;4979654;28;20050;-82
2023/05/02 01:48:27;;;;;;;12.30;4.10;;;10.20;99.90;;;;;;4947366;28;20057;-82
2023/05/02 01:50:56;;;;;;;9.13;4.22;;;10.10;99.90;;;;;;4979308;28;20043;-82
2023/05/02 01:53:24;;;;;;;10.10;4.10;;;10.20;99.90;;;;;;4979434;28;20569;-81
2023/05/02 01:55:51;;;;;;;9.93;4.47;;;10.20;99.90;;;;;;4978998;28;20042;-82
2023/05/02 01:58:18;;;;;;;8.02;4.22;;;10.20;99.90;;;;;;4962861;28;20050;-82
2023/05/02 02:00:45;;;;;;;7.32;3.88;;;10.20;99.90;;;;;;4979266;28;20097;-80
2023/05/02 02:03:11;;;;;;;10.02;3.80;;;10.20;99.90;;;;;;4978841;28;20047;-80
2023/05/02 02:05:40;;;;;;;9.13;4.10;;;10.30;99.90;;;;;;4979249;28;20457;-80
2023/05/02 02:08:07;;;;;;;8.45;4.10;;;10.30;99.90;;;;;;4962943;28;20054;-80
2023/05/02 02:10:39;;;;;;;8.93;4.13;;;10.30;99.90;;;;;;4978942;28;20498;-81
2023/05/02 02:13:22;;;;;;;7.88;3.90;;;10.20;99.90;;;;;;4978782;28;20455;-81
2023/05/02 02:15:50;;;;;;;9.70;3.97;;;10.20;99.90;;;;;;4962794;28;20062;-81
2023/05/02 02:18:25;;;;;;;10.23;4.38;;;10.20;99.90;;;;;;4962172;28;20082;-81
2023/05/02 02:20:52;;;;;;;9.60;4.40;;;10.20;99.90;;;;;;4978714;28;20395;-81
2023/05/02 02:23:22;;;;;;;9.35;4.03;;;10.20;99.90;;;;;;4978887;28;20046;-82
2023/05/02 02:25:51;;;;;;;9.93;4.50;;;10.20;99.90;;;;;;4978724;28;20050;-82
2023/05/02 02:28:17;;;;;;;8.65;4.28;;;10.20;99.90;;;;;;4978783;28;20451;-81
2023/05/02 02:30:42;;;;;;;10.38;4.40;;;10.20;99.90;;;;;;4978137;28;20125;-81
2023/05/02 02:33:08;;;;;;;10.68;4.53;;;10.20;99.90;;;;;;4978399;28;20133;-82
2023/05/02 02:35:41;;;;;;;9.85;4.60;;;10.20;99.90;;;;;;4994882;28;20046;-82
2023/05/02 02:38:26;;;;;;;9.68;4.63;;;10.30;99.90;;;;;;4978294;28;20046;-81
2023/05/02 02:41:00;;;;;;;10.07;4.93;;;10.30;99.90;;;;;;4978499;28;20046;-81
2023/05/02 02:43:47;;;;;;;11.60;4.60;;;10.20;99.90;;;;;;4977664;28;20529;-81
2023/05/02 02:46:43;;;;;;;9.73;4.40;;;10.20;99.90;;;;;;4962316;28;20043;-81
2023/05/02 02:49:27;;;;;;;13.00;5.22;;;10.20;99.90;;;;;;4962272;28;20050;-80
2023/05/02 02:52:05;;;;;;;13.45;4.57;;;10.20;99.90;;;;;;4994542;28;20137;-80
2023/05/02 02:54:38;;;;;;;14.27;4.95;;;9.90;99.90;;;;;;4978242;28;20512;-80
2023/05/02 02:57:15;;;;;;;12.05;3.88;;;9.70;99.90;;;;;;4978064;28;20051;-80
2023/05/02 02:59:50;;;;;;;12.30;3.72;;;9.60;99.90;;;;;;4978169;28;20497;-80
2023/05/02 03:02:18;;;;;;;15.48;4.00;;;9.30;99.90;;;;;;4978174;28;20089;-80
2023/05/02 03:04:46;;;;;;;15.38;4.78;;;9.20;99.90;;;;;;4977787;28;20050;-79
2023/05/02 03:07:12;;;;;;;14.38;4.53;;;9.00;99.90;;;;;;4945883;28;20479;-79
2023/05/02 03:09:46;;;;;;;15.25;4.70;;;9.00;99.90;;;;;;4977567;28;20138;-81
2023/05/02 03:12:12;;;;;;;15.70;4.75;;;8.90;99.90;;;;;;4977201;28;20054;-80
2023/05/02 03:14:39;;;;;;;18.98;5.10;;;8.80;99.90;;;;;;4961782;28;20058;-81
2023/05/02 03:17:07;;;;;;;16.95;4.80;;;8.80;99.90;;;;;;4961607;28;20467;-81
2023/05/02 03:19:33;;;;;;;19.48;5.70;;;8.70;99.90;;;;;;4961916;28;20054;-80
2023/05/02 03:21:59;;;;;;;19.70;5.53;;;8.70;99.90;;;;;;4961747;28;20128;-81
2023/05/02 03:24:26;;;;;;;21.70;5.45;;;8.70;99.90;;;;;;4993927;28;20046;-81
2023/05/02 03:26:57;;;;;;;20.50;5.78;;;8.70;99.90;;;;;;4961883;28;20054;-81
2023/05/02 03:29:27;;;;;;;21.53;5.57;;;8.60;99.90;;;;;;4977613;28;20042;-81
2023/05/02 03:31:53;;;;;;;24.70;5.75;;;8.70;99.90;;;;;;4977635;28;20273;-81
2023/05/02 03:34:21;;;;;;;25.63;6.10;;;8.60;99.90;;;;;;4961517;28;20121;-81
2023/05/02 03:36:46;;;;;;;22.98;6.13;;;9.10;99.90;;;;;;4961536;28;20450;-82
2023/05/02 03:39:12;;;;;;;21.48;5.63;;;8.60;99.90;;;;;;4993681;28;20043;-81
2023/05/02 03:41:38;;;;;;;20.23;5.80;;;8.50;99.90;;;;;;4944579;28;20053;-82
2023/05/02 03:44:04;;;;;;;27.13;5.88;;;8.40;99.90;;;;;;4961016;28;20085;-82
2023/05/02 03:46:30;;;;;;;24.70;5.80;;;8.40;99.90;;;;;;4961323;28;20136;-82
2023/05/02 03:48:58;;;;;;;21.73;5.85;;;8.40;99.90;;;;;;4961300;28;20050;-83
2023/05/02 03:51:24;;;;;;;23.52;5.75;;;8.40;99.90;;;;;;4977355;28;20053;-82
2023/05/02 03:53:50;;;;;;;20.25;5.55;;;8.30;99.90;;;;;;4977204;28;20078;-81
2023/05/02 03:56:19;;;;;;;23.02;5.28;;;8.30;99.90;;;;;;4944276;28;20054;-80
2023/05/02 03:58:46;;;;;;;23.25;5.20;;;8.20;99.90;;;;;;4961026;28;20038;-81
2023/05/02 04:01:15;;;;;;;18.33;4.80;;;8.20;99.90;;;;;;4961279;28;20050;-81
2023/05/02 04:03:41;;;;;;;18.95;4.95;;;8.30;99.90;;;;;;4961100;28;20065;-80
2023/05/02 04:06:07;;;;;;;21.58;5.25;;;8.20;99.90;;;;;;4961101;28;20050;-80
2023/05/02 04:08:33;;;;;;;26.23;5.13;;;8.20;99.90;;;;;;4993010;28;20046;-80
2023/05/02 04:11:02;;;;;;;17.27;4.82;;;8.20;99.90;;;;;;4960591;28;20092;-81
2023/05/02 04:13:30;;;;;;;21.67;5.03;;;8.10;99.90;;;;;;4960628;28;20104;-82
2023/05/02 04:15:56;;;;;;;22.45;5.00;;;8.10;99.90;;;;;;4961057;28;20438;-81
2023/05/02 04:18:22;;;;;;;20.65;4.95;;;8.10;99.90;;;;;;4976310;28;20183;-80
2023/05/02 04:20:49;;;;;;;19.92;4.70;;;8.10;99.90;;;;;;4976873;28;20409;-80
2023/05/02 04:23:18;;;;;;;20.85;5.00;;;8.00;99.90;;;;;;4945576;28;20053;-80
2023/05/02 04:25:51;;;;;;;19.08;4.60;;;7.90;99.90;;;;;;4976822;28;20054;-80
2023/05/02 04:28:17;;;;;;;16.02;4.40;;;7.80;99.90;;;;;;4976551;28;20042;-81
2023/05/02 04:30:43;;;;;;;18.30;4.65;;;7.80;99.90;;;;;;4993054;28;20053;-82
2023/05/02 04:33:09;;;;;;;15.90;4.28;;;7.80;99.90;;;;;;4993041;28;20078;-81
2023/05/02 04:35:37;;;;;;;21.35;4.68;;;7.80;99.90;;;;;;4960442;28;20113;-81
2023/05/02 04:38:03;;;;;;;17.00;4.53;;;7.80;99.90;;;;;;4944684;28;20443;-80
2023/05/02 04:40:28;;;;;;;18.40;4.60;;;7.70;99.90;;;;;;4960452;28;20065;-82
2023/05/02 04:42:54;;;;;;;16.80;4.50;;;7.70;99.90;;;;;;4960102;28;20212;-81
2023/05/02 04:45:20;;;;;;;17.65;4.70;;;7.70;99.90;;;;;;4960680;28;20058;-81
2023/05/02 04:47:46;;;;;;;18.10;4.65;;;7.30;99.90;;;;;;4992806;28;20474;-82
2023/05/02 04:50:11;;;;;;;16.33;4.15;;;7.70;99.90;;;;;;4976485;28;20046;-81
2023/05/02 04:52:37;;;;;;;14.52;3.85;;;7.70;99.90;;;;;;4960310;28;20101;-80
2023/05/02 04:55:03;;;;;;;15.10;4.00;;;7.70;99.90;;;;;;4960414;28;20052;-81
2023/05/02 04:57:29;;;;;;;15.75;4.22;;;7.70;99.90;;;;;;4976391;28;20046;-82
2023/05/02 04:59:55;;;;;;;14.02;3.55;;;7.70;99.90;;;;;;4960348;28;20459;-80
2023/05/02 05:02:21;;;;;;;15.50;3.55;;;7.70;99.90;;;;;;4992718;28;20074;-81
2023/05/02 05:04:48;;;;;;;15.95;3.67;;;7.70;99.90;;;;;;4960326;28;20403;-81
2023/05/02 05:07:13;;;;;;;14.32;3.45;;;7.70;99.90;;;;;;4978721;28;20058;-81
2023/05/02 05:09:39;;;;;;;13.77;3.40;;;7.80;99.90;;;;;;4980238;28;20050;-81
2023/05/02 05:12:05;;;;;;;13.57;3.30;;;7.80;99.90;;;;;;4963362;28;20069;-81
2023/05/02 05:14:30;;;;;;;20.33;3.63;;;7.70;99.90;;;;;;4963772;28;20050;-81
2023/05/02 05:16:57;;;;;;;11.48;3.00;;;7.70;99.90;;;;;;4963911;28;20047;-81
2023/05/02 05:19:22;;;;;;;11.20;2.80;;;7.70;99.90;;;;;;4979998;28;20054;-81
2023/05/02 05:21:48;;;;;;;10.40;2.85;;;7.80;99.90;;;;;;4979942;28;20545;-81
2023/05/02 05:24:14;;;;;;;11.00;2.80;;;7.80;99.90;;;;;;4995872;28;20046;-81
2023/05/02 05:26:40;;;;;;;11.93;2.80;;;7.80;99.90;;;;;;4963742;28;20093;-81
2023/05/02 05:29:06;;;;;;;11.68;2.75;;;7.70;99.90;;;;;;4996058;28;20046;-81
2023/05/02 05:31:32;;;;;;;12.10;2.75;;;7.70;99.90;;;;;;4963820;28;20056;-81
2023/05/02 05:33:57;;;;;;;11.88;2.60;;;7.70;99.90;;;;;;4979435;28;20150;-81
2023/05/02 05:36:24;;;;;;;13.10;2.78;;;7.80;99.90;;;;;;4947537;28;20038;-81
2023/05/02 05:38:50;;;;;;;9.70;2.47;;;7.80;99.90;;;;;;4979713;28;20133;-81
2023/05/02 05:41:16;;;;;;;10.25;2.70;;;7.80;99.90;;;;;;4963674;28;20143;-81
2023/05/02 05:43:42;;;;;;;12.35;2.75;;;7.80;99.90;;;;;;4979337;28;20089;-81
2023/05/02 05:46:07;;;;;;;12.95;2.45;;;7.80;99.90;;;;;;4963044;28;20073;-81
2023/05/02 05:48:33;;;;;;;9.93;2.30;;;7.80;99.90;;;;;;4947411;28;20050;-81
2023/05/02 05:51:04;;;;;;;8.60;2.42;;;7.80;99.90;;;;;;4995691;28;20141;-81
2023/05/02 05:53:35;;;;;;;7.30;2.00;;;7.80;99.90;;;;;;4979315;28;20050;-82
2023/05/02 05:56:11;;;;;;;9.60;2.40;;;7.80;99.90;;;;;;4963308;28;20454;-81
2023/05/02 05:58:41;;;;;;;7.82;2.13;;;7.80;99.90;;;;;;4962941;28;20045;-81
2023/05/02 06:01:07;;;;;;;10.32;2.28;;;7.90;99.90;;;;;;4979035;28;20054;-81
2023/05/02 06:03:33;;;;;;;8.35;2.40;;;8.20;99.90;;;;;;4963163;28;20376;-81
2023/05/02 06:05:59;;;;;;;11.40;2.40;;;8.10;99.90;;;;;;4963093;28;20082;-81
2023/05/02 06:08:24;;;;;;;12.02;2.50;;;8.20;99.90;;;;;;4963117;28;20474;-81
2023/05/02 06:10:50;;;;;;;10.68;2.35;;;8.40;99.90;;;;;;4978961;28;20058;-81
2023/05/02 06:13:16;;;;;;;9.93;2.22;;;8.50;99.90;;;;;;4946601;28;20054;-81
2023/05/02 06:15:41;;;;;;;12.00;2.63;;;8.60;99.90;;;;;;4962710;28;20046;-81
2023/05/02 06:18:07;;;;;;;10.57;2.60;;;8.70;99.90;;;;;;4961659;28;20042;-82
2023/05/02 06:20:35;;;;;;;12.93;3.03;;;9.00;99.90;;;;;;4978455;28;20056;-82
2023/05/02 06:23:01;;;;;;;8.65;2.67;;;9.10;99.90;;;;;;4978791;28;20133;-82
2023/05/02 06:25:27;;;;;;;9.75;2.97;;;8.90;99.90;;;;;;4962834;28;20086;-82
2023/05/02 06:27:53;;;;;;;13.95;3.30;;;8.80;99.90;;;;;;4978747;28;20129;-82
2023/05/02 06:30:19;;;;;;;12.77;3.20;;;8.70;99.90;;;;;;4978819;28;20135;-81
2023/05/02 06:32:45;;;;;;;11.70;3.00;;;8.60;99.90;;;;;;4995031;28;20426;-82
2023/05/02 06:35:11;;;;;;;14.70;3.05;;;8.50;99.90;;;;;;4975345;28;20054;-82
2023/05/02 06:37:37;;;;;;;13.25;2.80;;;8.40;99.90;;;;;;4962188;28;20097;-82
2023/05/02 06:40:04;;;;;;;11.98;2.85;;;8.40;99.90;;;;;;4978624;28;20038;-82
2023/05/02 06:42:30;;;;;;;11.88;3.33;;;8.30;99.90;;;;;;4961160;28;20038;-82
2023/05/02 06:44:55;;;;;;;12.05;3.03;;;8.80;99.90;;;;;;4962421;28;20054;-82
2023/05/02 06:47:23;;;;;;;12.05;3.00;;;8.20;99.90;;;;;;4961932;28;20517;-82
2023/05/02 06:49:51;;;;;;;13.90;3.05;;;8.30;99.90;;;;;;4962266;28;20058;-82
2023/05/02 06:52:16;;;;;;;12.40;3.05;;;8.20;99.90;;;;;;4978424;28;20058;-82
2023/05/02 06:54:42;;;;;;;12.25;3.17;;;8.30;99.90;;;;;;4994524;28;20047;-81
2023/05/02 06:57:08;;;;;;;11.50;3.10;;;8.30;99.90;;;;;;4994241;28;20043;-82
2023/05/02 06:59:34;;;;;;;14.02;3.30;;;8.30;99.90;;;;;;4946337;28;20391;-82
2023/05/02 07:02:00;;;;;;;14.45;3.35;;;8.20;99.90;;;;;;4961998;28;20046;-82
2023/05/02 07:04:25;;;;;;;11.15;3.05;;;8.20;99.90;;;;;;4962019;28;20364;-82
2023/05/02 07:06:51;;;;;;;13.10;3.30;;;8.30;99.90;;;;;;4961901;28;20482;-82
2023/05/02 07:09:18;;;;;;;19.67;3.72;;;8.30;99.90;;;;;;4961972;28;20394;-81
2023/05/02 07:11:43;;;;;;;13.85;3.58;;;8.40;99.90;;;;;;4961211;28;20054;-82
2023/05/02 07:14:09;;;;;;;16.05;3.35;;;8.40;99.90;;;;;;4977926;28;20050;-82
2023/05/02 07:16:35;;;;;;;14.40;3.33;;;8.50;99.90;;;;;;4961817;28;20450;-82
2023/05/02 07:19:03;;;;;;;12.57;3.17;;;8.50;99.90;;;;;;4977706;28;20046;-81
2023/05/02 07:21:29;;;;;;;11.52;2.92;;;8.50;99.90;;;;;;4977826;28;20077;-81
2023/05/02 07:23:56;;;;;;;14.18;2.90;;;8.50;99.90;;;;;;4977634;28;20479;-82
2023/05/02 07:26:23;;;;;;;11.50;3.20;;;8.60;99.90;;;;;;4961820;28;20081;-81
2023/05/02 07:28:48;;;;;;;11.68;3.38;;;8.60;99.90;;;;;;4993741;28;20058;-82
2023/05/02 07:31:14;;;;;;;11.43;3.05;;;8.60;99.90;;;;;;4960518;28;20058;-82
2023/05/02 07:33:40;;;;;;;9.60;2.97;;;8.60;99.90;;;;;;4977728;28;20486;-81
2023/05/02 07:36:06;;;;;;;12.25;3.22;;;8.70;99.90;;;;;;4961473;28;20042;-81
2023/05/02 07:38:31;;;;;;;13.75;3.13;;;8.70;99.90;;;;;;4961194;28;20506;-81
2023/05/02 07:40:58;;;;;;;10.05;3.00;;;8.70;99.90;;;;;;4977426;28;20056;-81
2023/05/02 07:43:24;;;;;;;11.48;3.00;;;8.70;99.40;;;;;;4976882;28;20060;-82
2023/05/02 07:45:49;;;;;;;11.27;2.85;;;8.70;99.30;;;;;;4977031;28;20133;-82
2023/05/02 07:48:15;;;;;;;11.20;3.10;;;8.70;98.20;;;;;;4977351;28;20065;-81
2023/05/02 07:50:41;;;;;;;12.13;3.00;;;8.70;99.90;;;;;;4945263;28;20101;-81
2023/05/02 07:53:07;;;;;;;9.95;3.05;;;8.80;99.90;;;;;;4993362;28;20046;-81
2023/05/02 07:55:32;;;;;;;13.77;3.33;;;8.90;98.90;;;;;;4992866;28;20058;-83
2023/05/02 07:57:59;;;;;;;11.10;3.33;;;8.80;98.30;;;;;;4976983;28;20046;-82
2023/05/02 08:00:25;;;;;;;13.02;3.03;;;8.90;99.00;;;;;;4945009;28;20054;-81
2023/05/02 08:02:51;;;;;;;10.30;2.90;;;8.80;96.60;;;;;;4961253;28;20136;-82
2023/05/02 08:05:16;;;;;;;10.18;2.67;;;8.80;96.10;;;;;;4961096;28;20498;-81
2023/05/02 08:07:42;;;;;;;10.85;2.95;;;8.70;94.50;;;;;;4993279;28;20061;-82
2023/05/02 08:10:09;;;;;;;12.30;2.92;;;8.80;96.70;;;;;;4961045;28;20046;-81
2023/05/02 08:12:39;;;;;;;12.60;2.95;;;9.00;97.40;;;;;;4960136;28;20136;-81
2023/05/02 08:15:10;;;;;;;10.68;2.85;;;9.20;96.20;;;;;;4977045;28;20490;-82
2023/05/02 08:17:36;;;;;;;9.88;2.60;;;9.30;96.30;;;;;;4960680;28;20129;-82
2023/05/02 08:20:02;;;;;;;9.98;2.63;;;9.50;94.40;;;;;;4976915;28;20141;-81
2023/05/02 08:22:28;;;;;;;9.25;2.40;;;9.40;94.80;;;;;;4961017;28;20046;-81
2023/05/02 08:24:53;;;;;;;10.60;2.80;;;9.40;93.70;;;;;;4993071;28;20153;-82
2023/05/02 08:27:19;;;;;;;8.82;2.50;;;9.30;92.70;;;;;;4976883;28;20054;-82
2023/05/02 08:29:45;;;;;;;10.20;2.70;;;9.30;93.40;;;;;;4960237;28;20137;-82
2023/05/02 08:32:11;;;;;;;9.07;2.70;;;9.30;91.30;;;;;;4960488;28;20058;-82
2023/05/02 08:34:36;;;;;;;8.50;2.65;;;9.80;94.00;;;;;;4960905;28;20050;-83
2023/05/02 08:37:08;;;;;;;8.02;2.33;;;10.50;92.30;;;;;;4960624;28;20558;-82
2023/05/02 08:39:34;;;;;;;9.40;2.57;;;10.70;87.70;;;;;;4976459;28;20406;-83
2023/05/02 08:41:59;;;;;;;9.25;2.47;;;11.10;90.50;;;;;;4962251;28;20296;-82
2023/05/02 08:44:25;;;;;;;8.48;2.50;;;11.00;87.10;;;;;;4948610;28;20121;-82
2023/05/02 08:46:52;;;;;;;9.60;2.50;;;10.80;87.70;;;;;;4964547;28;20088;-83
2023/05/02 08:49:19;;;;;;;10.55;2.80;;;10.70;88.00;;;;;;4964261;28;20054;-82
2023/05/02 08:51:48;;;;;;;9.88;2.55;;;10.40;88.80;;;;;;4964489;28;20414;-82
2023/05/02 08:54:16;;;;;;;13.80;2.97;;;10.70;88.40;;;;;;4980592;28;20043;-82
2023/05/02 08:56:41;;;;;;;12.07;2.95;;;10.70;91.10;;;;;;4996426;28;20065;-82
2023/05/02 08:59:07;;;;;;;10.63;3.10;;;10.60;90.90;;;;;;4980348;28;20479;-82
2023/05/02 09:01:35;;;;;;;11.10;2.90;;;10.60;92.30;;;;;;4996718;28;20042;-82
2023/05/02 09:04:01;;;;;;;12.15;2.90;;;10.70;90.30;;;;;;4996478;28;20057;-81
2023/05/02 09:06:28;;;;;;;10.38;2.70;;;10.60;90.70;;;;;;4980254;28;20408;-83
2023/05/02 09:08:54;;;;;;;10.60;2.83;;;10.50;90.50;;;;;;4996192;28;20380;-82
2023/05/02 09:11:20;;;;;;;10.30;2.75;;;10.50;92.20;;;;;;4963694;28;20050;-82
2023/05/02 09:13:51;;;;;;;10.52;3.20;;;10.30;90.90;;;;;;4979537;28;20051;-82
2023/05/02 09:16:22;;;;;;;10.25;3.00;;;10.10;92.60;;;;;;4964035;28;20043;-82
2023/05/02 09:18:54;;;;;;;12.98;3.20;;;10.10;92.90;;;;;;4996342;28;20133;-82
2023/05/02 09:21:24;;;;;;;9.60;3.10;;;10.30;94.20;;;;;;4996245;28;20097;-82
2023/05/02 09:23:58;;;;;;;11.63;2.90;;;10.40;94.10;;;;;;4964073;28;20634;-82
2023/05/02 09:26:30;;;;;;;11.60;2.97;;;10.40;92.60;;;;;;4979692;28;20058;-82
2023/05/02 09:28:57;;;;;;;11.07;2.80;;;10.20;93.90;;;;;;4979749;28;20049;-83
2023/05/02 09:31:35;;;;;;;10.85;2.97;;;10.60;92.30;;;;;;4979938;28;20400;-82
2023/05/02 09:34:10;;;;;;;8.25;2.80;;;10.70;93.60;;;;;;4979646;28;20061;-83
2023/05/02 09:36:54;;;;;;;11.95;2.58;;;10.90;93.90;;;;;;4995875;28;20050;-81
2023/05/02 09:39:25;;;;;;;9.70;2.75;;;10.80;90.80;;;;;;4979607;28;20056;-82
2023/05/02 09:41:50;;;;;;;10.77;2.97;;;10.80;91.60;;;;;;4963184;28;20042;-82
2023/05/02 09:44:23;;;;;;;9.20;2.60;;;10.80;92.10;;;;;;4963392;28;20124;-82
2023/05/02 09:47:01;;;;;;;8.70;2.70;;;10.70;91.10;;;;;;4963483;28;20050;-82
2023/05/02 09:49:45;;;;;;;8.48;2.88;;;10.70;92.40;;;;;;4964105;28;20486;-82
2023/05/02 09:52:16;;;;;;;10.20;2.42;;;10.60;93.10;;;;;;4979306;28;20366;-82
2023/05/02 09:54:42;;;;;;;8.23;2.40;;;10.70;93.90;;;;;;4995128;28;20039;-82
2023/05/02 09:57:09;;;;;;;9.98;2.55;;;10.70;92.80;;;;;;4979251;28;20081;-81
2023/05/02 09:59:35;;;;;;;9.55;2.47;;;10.70;93.50;;;;;;4995589;28;20058;-81
2023/05/02 10:02:08;;;;;;;8.90;2.35;;;10.70;93.80;;;;;;4963230;28;20046;-81
2023/05/02 10:04:35;;;;;;;7.43;2.30;;;10.70;94.30;;;;;;4963237;28;20058;-82
2023/05/02 10:07:02;;;;;;;8.15;1.98;;;10.80;95.30;;;;;;4979092;28;20042;-81
2023/05/02 10:09:31;;;;;;;8.63;2.13;;;10.80;95.60;;;;;;4979197;28;20042;-81
2023/05/02 10:12:02;;;;;;;6.72;1.90;;;10.60;93.30;;;;;;4978478;28;20463;-81
2023/05/02 10:14:30;;;;;;;8.83;1.77;;;10.50;93.20;;;;;;4979064;28;20086;-81
2023/05/02 10:17:08;;;;;;;7.18;1.50;;;10.40;93.80;;;;;;4978972;28;20046;-82
2023/05/02 10:19:58;;;;;;;5.97;1.60;;;10.50;91.70;;;;;;4978869;28;20052;-81
2023/05/02 10:22:25;;;;;;;6.78;1.60;;;10.70;88.90;;;;;;4978977;28;20530;-81
2023/05/02 10:24:52;;;;;;;4.93;1.50;;;10.90;90.30;;;;;;4978775;28;20402;-81
2023/05/02 10:27:18;;;;;;;7.25;1.63;;;11.00;89.50;;;;;;4962785;28;20054;-82
2023/05/02 10:29:46;;;;;;;6.75;1.70;;;11.10;88.20;;;;;;4978811;28;20042;-81
2023/05/02 10:32:16;;;;;;;5.68;1.52;;;11.10;90.20;;;;;;4962573;28;20046;-81
2023/05/02 10:34:42;;;;;;;6.18;1.63;;;11.00;85.80;;;;;;4978736;28;20108;-81
2023/05/02 10:37:08;;;;;;;5.07;1.40;;;11.10;88.10;;;;;;4978595;28;20050;-82
2023/05/02 10:39:34;;;;;;;5.90;1.60;;;11.30;87.00;;;;;;4962372;28;20057;-81
2023/05/02 10:42:03;;;;;;;7.05;1.60;;;11.60;88.60;;;;;;4994548;28;20062;-81
2023/05/02 10:44:33;;;;;;;5.03;1.52;;;11.60;87.40;;;;;;4978608;28;20453;-82
2023/05/02 10:46:59;;;;;;;6.50;1.55;;;11.70;83.70;;;;;;4978331;28;20058;-81
2023/05/02 10:49:26;;;;;;;5.85;1.60;;;11.60;84.40;;;;;;4978135;28;20129;-82
2023/05/02 10:51:52;;;;;;;5.75;1.70;;;11.50;84.00;;;;;;4978428;28;20057;-82
2023/05/02 10:54:22;;;;;;;5.75;1.70;;;11.40;84.10;;;;;;4962273;28;20061;-82
2023/05/02 10:57:04;;;;;;;5.57;1.48;;;11.30;87.30;;;;;;4961544;28;20061;-81
2023/05/02 10:59:34;;;;;;;5.60;1.52;;;11.60;90.30;;;;;;4977474;28;20097;-82
2023/05/02 11:02:00;;;;;;;5.53;1.70;;;11.80;86.60;;;;;;4962068;28;20150;-82
2023/05/02 11:05:01;;;;;;;5.35;1.50;;;11.60;85.90;;;;;;4977869;28;20053;-82
2023/05/02 11:07:28;;;;;;;7.43;1.67;;;11.60;82.80;;;;;;4978015;28;20423;-82
2023/05/02 11:10:17;;;;;;;6.18;1.60;;;11.70;83.70;;;;;;4977553;28;20046;-83
2023/05/02 11:12:47;;;;;;;6.97;1.75;;;11.80;83.60;;;;;;4993579;28;20070;-82
2023/05/02 11:15:14;;;;;;;8.10;1.63;;;11.80;82.30;;;;;;4994175;28;20057;-83
2023/05/02 11:18:00;;;;;;;7.00;1.70;;;11.70;82.40;;;;;;4961542;28;20054;-82
2023/05/02 11:20:27;;;;;;;6.68;1.80;;;11.70;86.80;;;;;;4994006;28;20098;-82
2023/05/02 11:22:54;;;;;;;5.78;1.95;;;11.70;87.40;;;;;;4977793;28;20082;-82
2023/05/02 11:25:30;;;;;;;6.78;1.80;;;11.90;89.00;;;;;;4993653;28;20446;-82
2023/05/02 11:27:58;;;;;;;5.72;1.75;;;11.70;88.50;;;;;;4977321;28;20051;-82
2023/05/02 11:30:44;;;;;;;5.22;1.80;;;11.90;90.40;;;;;;4993812;28;20074;-82
2023/05/02 11:33:11;;;;;;;6.32;1.60;;;11.80;87.80;;;;;;4993477;28;20054;-82
2023/05/02 11:35:42;;;;;;;5.75;1.63;;;12.00;89.50;;;;;;4945742;28;20042;-82
2023/05/02 11:38:13;;;;;;;6.18;1.70;;;11.90;85.60;;;;;;4993498;28;20046;-83
2023/05/02 11:40:39;;;;;;;5.63;1.70;;;12.00;86.50;;;;;;4993738;28;20538;-82
2023/05/02 11:43:16;;;;;;;6.82;1.80;;;12.10;87.50;;;;;;4977196;28;20060;-82
2023/05/02 11:45:42;;;;;;;7.65;1.60;;;11.80;84.80;;;;;;4977138;28;20039;-82
2023/05/02 11:48:11;;;;;;;5.55;1.60;;;11.80;87.30;;;;;;4977248;28;20553;-83
2023/05/02 11:50:46;;;;;;;5.57;1.42;;;11.80;90.90;;;;;;4993562;28;20430;-82
2023/05/02 11:53:14;;;;;;;5.72;1.70;;;11.50;90.50;;;;;;4976986;28;20057;-82
2023/05/02 11:55:48;;;;;;;5.75;1.58;;;11.50;92.00;;;;;;4993443;28;20565;-82
2023/05/02 11:58:19;;;;;;;6.38;1.58;;;11.60;93.30;;;;;;4993257;28;20061;-83
2023/05/02 12:00:46;;;;;;;6.30;1.47;;;11.50;93.20;;;;;;4977199;28;20050;-83
2023/05/02 12:03:32;;;;;;;5.85;1.60;;;11.50;92.50;;;;;;4961098;28;20137;-82
2023/05/02 12:06:13;;;;;;;5.50;1.40;;;11.20;90.70;;;;;;4961080;28;20454;-83
2023/05/02 12:08:39;;;;;;;6.93;1.52;;;11.10;92.50;;;;;;4960442;28;20109;-82
2023/05/02 12:11:06;;;;;;;8.35;1.60;;;11.30;92.30;;;;;;4960825;28;20066;-83
2023/05/02 12:13:42;;;;;;;4.20;1.20;;;11.60;93.70;;;;;;4960602;28;20054;-82
2023/05/02 12:16:08;;;;;;;9.02;1.77;;;11.80;92.90;;;;;;4960419;28;20140;-83
2023/05/02 12:18:35;;;;;;;6.93;1.75;;;11.70;90.60;;;;;;4992858;28;20125;-82
2023/05/02 12:21:00;;;;;;;6.93;1.60;;;11.80;89.60;;;;;;4960292;28;20058;-83
2023/05/02 12:23:26;;;;;;;7.95;1.60;;;11.60;87.30;;;;;;4960529;28;20055;-83
2023/05/02 12:25:52;;;;;;;4.95;1.50;;;11.40;89.10;;;;;;4976694;28;20454;-83
2023/05/02 12:28:19;;;;;;;4.72;1.45;;;11.40;90.00;;;;;;4976798;28;20402;-82
2023/05/02 12:30:47;;;;;;;6.57;1.50;;;11.40;90.80;;;;;;4976791;28;20046;-83
2023/05/02 12:33:13;;;;;;;5.70;1.40;;;11.30;91.20;;;;;;4976572;28;20141;-83
2023/05/02 12:35:39;;;;;;;5.80;1.55;;;11.20;90.00;;;;;;4960741;28;20133;-83
2023/05/02 12:38:15;;;;;;;6.15;1.40;;;11.30;91.80;;;;;;4976239;28;20402;-82
2023/05/02 12:40:51;;;;;;;5.18;1.25;;;11.40;90.40;;;;;;4976907;28;20394;-83
2023/05/02 12:43:18;;;;;;;5.47;1.40;;;11.50;92.40;;;;;;4960342;28;20054;-83
2023/05/02 12:45:44;;;;;;;6.68;1.52;;;11.60;90.50;;;;;;4976528;28;20047;-83
2023/05/02 12:48:24;;;;;;;7.35;1.60;;;11.60;91.00;;;;;;4976685;28;20050;-83
2023/05/02 12:50:51;;;;;;;5.43;1.52;;;11.70;91.70;;;;;;4976272;28;20054;-84
2023/05/02 12:53:44;;;;;;;9.50;1.70;;;11.90;93.30;;;;;;4960547;28;20043;-83